createdAt,value
2023-03-07T00:02:18.389Z,60.37
2023-03-07T00:04:55.188Z,59.80
2023-03-07T00:07:31.143Z,57.50
2023-03-07T00:10:13.678Z,60.87
2023-03-07T00:12:51.794Z,60.47
2023-03-07T00:15:28.321Z,61.80
2023-03-07T00:18:07.186Z,60.77
2023-03-07T00:20:43.897Z,62.23
2023-03-07T00:23:22.217Z,63.10
2023-03-07T00:26:06.795Z,62.43
2023-03-07T00:28:42.947Z,64.30
2023-03-07T00:31:21.712Z,63.63
2023-03-07T00:34:00.666Z,65.87
2023-03-07T00:36:37.309Z,67.33
2023-03-07T00:39:29.103Z,64.97
2023-03-07T00:42:07.972Z,64.23
2023-03-07T00:44:44.584Z,64.17
2023-03-07T00:47:20.539Z,63.80
2023-03-07T00:49:59.639Z,63.93
2023-03-07T00:52:36.062Z,60.57
2023-03-07T00:55:13.565Z,60.77
2023-03-07T00:57:54.144Z,61.80
2023-03-07T01:00:30.755Z,61.50
2023-03-07T01:03:09.266Z,64.07
2023-03-07T01:05:50.413Z,61.03
2023-03-07T01:08:28.331Z,62.63
2023-03-07T01:11:09.687Z,61.97
2023-03-07T01:13:48.215Z,62.87
2023-03-07T01:16:26.726Z,63.60
2023-03-07T01:19:05.547Z,61.63
2023-03-07T01:21:46.270Z,62.23
2023-03-07T01:24:23.450Z,61.93
2023-03-07T01:27:04.739Z,63.50
2023-03-07T01:29:40.946Z,68.37
2023-03-07T01:32:18.434Z,64.00
2023-03-07T01:34:56.422Z,63.60
2023-03-07T01:37:37.812Z,64.50
2023-03-07T01:40:18.278Z,63.70
2023-03-07T01:42:57.882Z,65.43
2023-03-07T01:46:19.180Z,65.70
2023-03-07T01:49:03.488Z,66.77
2023-03-07T01:51:49.785Z,65.70
2023-03-07T01:54:38.530Z,64.50
2023-03-07T01:57:19.451Z,66.47
2023-03-07T02:00:00.289Z,64.47
2023-03-07T02:02:44.379Z,66.47
2023-03-07T02:05:34.662Z,68.63
2023-03-07T02:08:13.693Z,68.57
2023-03-07T02:10:56.077Z,67.23
2023-03-07T02:13:46.589Z,67.43
2023-03-07T02:16:24.517Z,69.60
2023-03-07T02:19:05.676Z,66.07
2023-03-07T02:21:53.145Z,67.80
2023-03-07T02:24:38.051Z,64.60
2023-03-07T02:27:20.648Z,67.57
2023-03-07T02:29:59.307Z,65.10
2023-03-07T02:32:42.162Z,67.70
2023-03-07T02:35:31.124Z,68.03
2023-03-07T02:38:12.867Z,68.07
2023-03-07T02:40:54.351Z,65.87
2023-03-07T02:43:40.444Z,68.70
2023-03-07T02:46:21.465Z,70.93
2023-03-07T02:49:02.945Z,73.33
2023-03-07T02:51:43.856Z,73.20
2023-03-07T02:54:20.495Z,70.23
2023-03-07T02:56:59.266Z,70.57
2023-03-07T02:59:42.771Z,71.00
2023-03-07T03:02:22.463Z,70.17
2023-03-07T03:05:04.121Z,70.03
2023-03-07T03:07:49.129Z,68.70
2023-03-07T03:10:28.829Z,63.47
2023-03-07T03:13:07.855Z,66.40
2023-03-07T03:15:50.036Z,64.63
2023-03-07T03:18:27.455Z,63.27
2023-03-07T03:21:16.852Z,64.40
2023-03-07T03:24:12.150Z,66.03
2023-03-07T03:26:56.227Z,66.10
2023-03-07T03:29:38.115Z,64.80
2023-03-07T03:32:23.045Z,66.90
2023-03-07T03:35:00.412Z,67.67
2023-03-07T03:37:39.049Z,63.23
2023-03-07T03:40:19.987Z,63.07
2023-03-07T03:43:03.005Z,57.87
2023-03-07T03:45:39.932Z,61.33
2023-03-07T03:48:20.303Z,60.17
2023-03-07T03:51:07.184Z,61.17
2023-03-07T03:53:46.054Z,62.70
2023-03-07T03:56:25.117Z,62.60
2023-03-07T03:59:11.443Z,59.00
2023-03-07T04:01:52.354Z,60.40
2023-03-07T04:04:35.613Z,57.80
2023-03-07T04:07:22.045Z,65.83
2023-03-07T04:10:01.534Z,63.93
2023-03-07T04:12:42.653Z,62.73
2023-03-07T04:15:24.403Z,61.70
2023-03-07T04:18:16.524Z,62.90
2023-03-07T04:21:10.256Z,62.90
2023-03-07T04:23:58.385Z,61.17
2023-03-07T04:26:39.471Z,65.43
2023-03-07T04:29:22.345Z,64.97
2023-03-07T04:32:16.991Z,65.53
2023-03-07T04:34:55.182Z,69.97
2023-03-07T04:37:38.988Z,66.17
2023-03-07T04:40:23.977Z,66.20
2023-03-07T04:43:30.483Z,67.37
2023-03-07T04:46:18.528Z,67.83
2023-03-07T04:49:08.558Z,70.10
2023-03-07T04:51:46.017Z,68.67
2023-03-07T04:54:27.825Z,71.37
2023-03-07T04:57:09.096Z,71.47
2023-03-07T04:59:58.630Z,70.47
2023-03-07T05:02:41.012Z,70.87
2023-03-07T05:05:18.826Z,69.30
2023-03-07T05:08:03.562Z,72.00
2023-03-07T05:10:56.712Z,69.60
2023-03-07T05:13:43.164Z,73.30
2023-03-07T05:16:23.494Z,73.83
2023-03-07T05:19:06.371Z,71.47
2023-03-07T05:21:46.947Z,69.47
2023-03-07T05:24:27.166Z,68.93
2023-03-07T05:27:06.753Z,70.53
2023-03-07T05:29:47.622Z,69.67
2023-03-07T05:32:29.822Z,68.40
2023-03-07T05:35:07.224Z,71.07
2023-03-07T05:37:43.985Z,68.90
2023-03-07T05:40:21.304Z,70.97
2023-03-07T05:43:01.853Z,66.80
2023-03-07T05:45:53.031Z,67.20
2023-03-07T05:48:42.544Z,67.53
2023-03-07T05:51:21.274Z,66.70
2023-03-07T05:54:03.246Z,66.33
2023-03-07T05:56:42.587Z,68.50
2023-03-07T05:59:27.056Z,69.23
2023-03-07T06:02:04.131Z,71.73
2023-03-07T06:04:42.738Z,69.60
2023-03-07T06:07:24.503Z,68.70
2023-03-07T06:10:05.017Z,67.40
2023-03-07T06:12:51.524Z,68.43
2023-03-07T06:15:41.081Z,69.67
2023-03-07T06:18:21.439Z,68.83
2023-03-07T06:21:07.582Z,70.63
2023-03-07T06:23:51.400Z,71.07
2023-03-07T06:26:31.467Z,71.23
2023-03-07T06:29:17.162Z,71.50
2023-03-07T06:31:58.058Z,69.73
2023-03-07T06:34:39.820Z,70.90
2023-03-07T06:37:21.135Z,68.67
2023-03-07T06:40:00.947Z,68.33
2023-03-07T06:42:40.653Z,69.47
2023-03-07T06:45:23.992Z,69.90
2023-03-07T06:48:03.836Z,72.20
2023-03-07T06:50:41.360Z,71.93
2023-03-07T06:53:19.107Z,69.40
2023-03-07T06:55:57.335Z,68.80
2023-03-07T06:58:39.253Z,71.50
2023-03-07T07:01:28.611Z,69.70
2023-03-07T07:04:10.548Z,68.53
2023-03-07T07:06:52.084Z,66.07
2023-03-07T07:09:35.811Z,67.90
2023-03-07T07:12:22.403Z,68.73
2023-03-07T07:15:04.088Z,71.07
2023-03-07T07:17:45.418Z,67.80
2023-03-07T07:20:28.173Z,71.03
2023-03-07T07:23:07.400Z,67.43
2023-03-07T07:25:50.062Z,65.50
2023-03-07T07:28:29.249Z,66.53
2023-03-07T07:31:14.750Z,68.57
2023-03-07T07:33:54.024Z,64.67
2023-03-07T07:36:40.717Z,65.40
2023-03-07T07:39:19.857Z,68.57
2023-03-07T07:42:02.235Z,66.43
2023-03-07T07:44:50.146Z,68.53
2023-03-07T07:47:32.683Z,68.00
2023-03-07T07:50:18.964Z,67.67
2023-03-07T07:53:06.540Z,66.10
2023-03-07T07:55:46.972Z,66.93
2023-03-07T07:58:30.119Z,66.23
2023-03-07T08:01:29.616Z,67.93
2023-03-07T08:04:09.913Z,66.17
2023-03-07T08:06:53.160Z,69.97
2023-03-07T08:09:33.228Z,67.23
2023-03-07T08:12:17.892Z,69.93
2023-03-07T08:14:54.843Z,69.27
2023-03-07T08:17:36.801Z,70.03
2023-03-07T08:20:14.378Z,68.73
2023-03-07T08:22:57.268Z,66.83
2023-03-07T08:25:43.084Z,69.63
2023-03-07T08:28:20.328Z,65.10
2023-03-07T08:30:57.430Z,69.03
2023-03-07T08:33:34.094Z,64.70
2023-03-07T08:36:12.786Z,64.37
2023-03-07T08:39:32.879Z,63.87
2023-03-07T08:42:12.250Z,64.50
2023-03-07T08:44:56.454Z,64.90
2023-03-07T08:47:36.058Z,63.10
2023-03-07T08:50:14.105Z,62.20
2023-03-07T08:52:56.806Z,64.47
2023-03-07T08:55:37.009Z,61.87
2023-03-07T08:58:20.765Z,60.20
2023-03-07T09:01:08.554Z,62.07
2023-03-07T09:03:46.441Z,61.77
2023-03-07T09:06:32.221Z,63.97
2023-03-07T09:09:08.946Z,60.73
2023-03-07T09:11:49.137Z,63.13
2023-03-07T09:14:31.248Z,61.30
2023-03-07T09:17:09.466Z,61.07
2023-03-07T09:19:53.349Z,61.43
2023-03-07T09:22:30.559Z,61.20
2023-03-07T09:25:14.966Z,62.93
2023-03-07T09:27:55.265Z,61.33
2023-03-07T09:30:38.075Z,58.83
2023-03-07T09:33:16.069Z,54.90
2023-03-07T09:36:00.931Z,55.27
2023-03-07T09:38:45.141Z,55.37
2023-03-07T09:41:51.368Z,54.97
2023-03-07T09:44:45.687Z,55.00
2023-03-07T09:48:40.159Z,56.93
2023-03-07T09:51:24.265Z,54.83
2023-03-07T09:54:08.441Z,56.10
2023-03-07T09:56:51.666Z,54.83
2023-03-07T09:59:41.291Z,55.20
2023-03-07T10:02:33.999Z,57.63
2023-03-07T10:05:27.594Z,57.17
2023-03-07T10:08:06.946Z,56.87
2023-03-07T10:10:48.822Z,60.47
2023-03-07T10:13:46.765Z,59.20
2023-03-07T10:16:35.296Z,59.90
2023-03-07T10:19:27.883Z,59.90
2023-03-07T10:22:29.064Z,59.47
2023-03-07T10:25:30.484Z,58.07
2023-03-07T10:28:19.038Z,61.97
2023-03-07T10:31:04.079Z,61.87
2023-03-07T10:33:50.588Z,60.63
2023-03-07T10:36:40.540Z,61.00
2023-03-07T10:39:44.224Z,61.10
2023-03-07T10:42:51.038Z,62.73
2023-03-07T10:45:37.126Z,63.87
2023-03-07T10:48:27.558Z,62.53
2023-03-07T10:51:15.218Z,61.83
2023-03-07T10:54:02.007Z,63.67
2023-03-07T10:56:41.221Z,61.50
2023-03-07T10:59:19.999Z,63.00
2023-03-07T11:02:03.877Z,64.33
2023-03-07T11:04:52.911Z,62.93
2023-03-07T11:07:41.549Z,63.30
2023-03-07T11:10:39.663Z,65.90
2023-03-07T11:13:22.484Z,64.57
2023-03-07T11:16:16.644Z,63.33
2023-03-07T11:19:00.560Z,64.50
2023-03-07T11:21:39.745Z,66.20
2023-03-07T11:24:36.444Z,65.17
2023-03-07T11:27:25.356Z,66.00
2023-03-07T11:30:57.632Z,62.47
2023-03-07T11:33:59.528Z,64.50
2023-03-07T11:36:52.669Z,67.27
2023-03-07T12:00:32.126Z,64.73
2023-03-07T12:03:42.803Z,67.77
2023-03-07T12:06:31.342Z,68.03
2023-03-07T12:09:31.379Z,66.10
2023-03-07T12:12:48.593Z,68.57
2023-03-07T12:15:51.675Z,66.97
2023-03-07T12:18:56.843Z,71.73
2023-03-07T12:22:04.006Z,75.13
2023-03-07T12:25:02.590Z,72.60
2023-03-07T12:27:43.709Z,74.47
2023-03-07T12:30:28.948Z,72.47
2023-03-07T12:33:13.662Z,71.03
2023-03-07T12:36:02.103Z,71.60
2023-03-07T12:38:47.061Z,72.70
2023-03-07T12:41:45.485Z,72.57
2023-03-07T12:44:41.588Z,74.07
2023-03-07T12:47:35.571Z,72.43
2023-03-07T12:50:35.487Z,71.33
2023-03-07T12:53:25.644Z,70.93
2023-03-07T12:56:06.267Z,69.57
2023-03-07T12:58:52.121Z,72.93
2023-03-07T13:01:53.862Z,73.10
2023-03-07T13:04:41.470Z,70.67
2023-03-07T13:07:40.460Z,73.53
2023-03-07T13:10:26.469Z,74.10
2023-03-07T13:13:06.069Z,75.60
2023-03-07T13:16:13.113Z,72.03
2023-03-07T13:18:51.816Z,74.90
2023-03-07T13:21:41.616Z,74.13
2023-03-07T13:24:57.187Z,74.30
2023-03-07T13:27:51.359Z,76.40
2023-03-07T13:30:31.347Z,74.40
2023-03-07T13:33:12.521Z,75.63
2023-03-07T13:36:12.776Z,75.03
2023-03-07T13:38:49.929Z,75.77
2023-03-07T13:41:57.086Z,78.87
2023-03-07T13:44:51.532Z,77.43
2023-03-07T13:47:48.810Z,76.83
2023-03-07T13:50:49.110Z,77.17
2023-03-07T13:53:31.463Z,75.57
2023-03-07T13:56:17.789Z,79.83
2023-03-07T13:59:07.135Z,78.33
2023-03-07T14:01:50.725Z,78.37
2023-03-07T14:04:40.000Z,77.37
2023-03-07T14:07:27.296Z,76.30
2023-03-07T14:10:22.251Z,75.27
2023-03-07T14:13:42.961Z,76.27
2023-03-07T14:16:52.988Z,74.33
2023-03-07T14:19:46.948Z,75.97
2023-03-07T14:22:40.251Z,71.27
2023-03-07T14:25:27.710Z,72.13
2023-03-07T14:28:07.319Z,73.40
2023-03-07T14:30:53.729Z,70.20
2023-03-07T14:33:38.253Z,70.80
2023-03-07T14:36:37.042Z,72.90
2023-03-07T14:39:19.718Z,72.93
2023-03-07T14:42:07.788Z,71.60
2023-03-07T14:45:12.201Z,74.57
2023-03-07T14:48:12.920Z,77.67
2023-03-07T14:50:57.729Z,81.13
2023-03-07T14:53:40.058Z,82.30
2023-03-07T14:56:24.565Z,85.97
2023-03-07T14:59:05.363Z,86.00
2023-03-07T15:01:50.144Z,86.93
2023-03-07T15:04:38.968Z,88.03
2023-03-07T15:07:32.001Z,90.13
2023-03-07T15:10:08.938Z,88.37
2023-03-07T15:12:56.302Z,92.90
2023-03-07T15:15:45.593Z,92.43
2023-03-07T15:18:29.172Z,93.17
2023-03-07T15:21:13.386Z,94.93
2023-03-07T15:24:10.651Z,98.33
2023-03-07T15:26:58.803Z,97.40
2023-03-07T15:29:42.571Z,96.93
2023-03-07T15:32:44.125Z,99.67
2023-03-07T15:35:28.793Z,99.40
2023-03-07T15:38:13.768Z,100.63
2023-03-07T15:40:56.400Z,102.97
2023-03-07T15:43:42.928Z,108.07
2023-03-07T15:46:23.921Z,109.60
2023-03-07T15:49:04.273Z,111.30
2023-03-07T15:51:45.447Z,112.90
2023-03-07T15:54:36.636Z,112.03
2023-03-07T15:57:26.327Z,110.97
2023-03-07T16:00:07.641Z,111.60
2023-03-07T16:02:59.998Z,113.93
2023-03-07T16:05:46.339Z,112.57
2023-03-07T16:08:25.351Z,112.57
2023-03-07T16:11:10.631Z,113.23
2023-03-07T16:13:53.714Z,111.03
2023-03-07T16:16:50.697Z,112.87
2023-03-07T16:19:30.906Z,114.30
2023-03-07T16:22:08.797Z,114.70
2023-03-07T16:24:46.216Z,118.73
2023-03-07T16:27:33.552Z,118.57
2023-03-07T16:30:21.059Z,111.83
2023-03-07T16:33:04.647Z,113.20
2023-03-07T16:35:41.128Z,115.77
2023-03-07T16:38:28.134Z,114.83
2023-03-07T16:41:07.579Z,113.27
2023-03-07T16:43:46.307Z,111.83
2023-03-07T16:46:27.276Z,114.63
2023-03-07T16:49:06.759Z,116.23
2023-03-07T16:51:53.304Z,111.47
2023-03-07T16:54:36.202Z,115.77
2023-03-07T16:57:22.235Z,117.00
2023-03-07T16:59:59.002Z,113.73
2023-03-07T17:02:39.089Z,110.30
2023-03-07T17:05:23.774Z,114.10
2023-03-07T17:08:01.734Z,113.60
2023-03-07T17:10:39.312Z,115.50
2023-03-07T17:13:19.835Z,108.87
2023-03-07T17:16:02.599Z,113.40
2023-03-07T17:18:41.460Z,112.30
2023-03-07T17:21:21.439Z,114.40
2023-03-07T17:23:57.488Z,109.80
2023-03-07T17:26:36.750Z,112.57
2023-03-07T17:29:19.214Z,107.80
2023-03-07T17:31:55.677Z,111.13
2023-03-07T17:34:35.362Z,109.70
2023-03-07T17:37:12.227Z,112.53
2023-03-07T17:39:50.014Z,112.57
2023-03-07T17:42:28.149Z,111.90
2023-03-07T17:45:04.176Z,111.07
2023-03-07T17:47:42.868Z,112.50
2023-03-07T17:50:25.387Z,115.20
2023-03-07T17:53:02.553Z,111.97
2023-03-07T17:55:39.115Z,112.80
2023-03-07T17:58:19.049Z,113.57
2023-03-07T18:00:59.475Z,112.83
2023-03-07T18:03:36.865Z,115.33
2023-03-07T18:06:16.828Z,116.30
2023-03-07T18:08:52.839Z,113.83
2023-03-07T18:11:28.886Z,118.27
2023-03-07T18:14:05.072Z,116.30
2023-03-07T18:16:41.087Z,113.40
2023-03-07T18:19:25.642Z,115.60
2023-03-07T18:22:05.288Z,116.77
2023-03-07T18:24:42.334Z,114.37
2023-03-07T18:27:19.528Z,115.73
2023-03-07T18:29:57.580Z,112.93
2023-03-07T18:32:35.398Z,112.50
2023-03-07T18:35:17.124Z,111.93
2023-03-07T18:37:54.999Z,114.00
2023-03-07T18:40:33.302Z,114.47
2023-03-07T18:43:10.342Z,113.63
2023-03-07T18:45:49.710Z,110.03
2023-03-07T18:48:25.475Z,109.60
2023-03-07T18:51:05.107Z,110.53
2023-03-07T18:53:44.070Z,110.47
2023-03-07T18:56:21.247Z,106.83
2023-03-07T18:58:58.284Z,109.13
2023-03-07T19:01:34.610Z,104.63
2023-03-07T19:04:13.108Z,107.67
2023-03-07T19:06:49.908Z,108.10
2023-03-07T19:09:27.796Z,106.40
2023-03-07T19:12:03.795Z,108.57
2023-03-07T19:14:40.082Z,106.90
2023-03-07T19:17:15.677Z,106.77
2023-03-07T19:19:54.134Z,108.87
2023-03-07T19:22:29.679Z,108.73
2023-03-07T19:25:07.542Z,108.73
2023-03-07T19:27:43.145Z,109.63
2023-03-07T19:30:20.489Z,106.83
2023-03-07T19:32:55.952Z,105.87
2023-03-07T19:35:31.406Z,107.70
2023-03-07T19:38:06.488Z,106.00
2023-03-07T19:40:45.033Z,110.97
2023-03-07T19:43:20.361Z,106.57
2023-03-07T19:45:57.078Z,109.83
2023-03-07T19:48:32.363Z,111.03
2023-03-07T19:51:07.426Z,110.67
2023-03-07T19:53:42.222Z,110.53
2023-03-07T19:56:21.475Z,108.57
2023-03-07T19:58:56.941Z,111.97
2023-03-07T20:01:32.652Z,112.30
2023-03-07T20:04:09.327Z,111.13
2023-03-07T20:06:45.853Z,112.30
2023-03-07T20:09:20.919Z,111.60
2023-03-07T20:11:57.619Z,112.40
2023-03-07T20:14:33.694Z,110.67
2023-03-07T20:17:08.657Z,109.83
2023-03-07T20:19:44.425Z,111.47
2023-03-07T20:22:19.579Z,113.83
2023-03-07T20:24:56.213Z,109.47
2023-03-07T20:27:33.463Z,116.50
2023-03-07T20:30:08.644Z,113.13
2023-03-07T20:32:43.444Z,112.03
2023-03-07T20:35:18.754Z,115.57
2023-03-07T20:37:52.866Z,113.83
2023-03-07T20:40:28.067Z,115.30
2023-03-07T20:43:07.376Z,115.67
2023-03-07T20:45:42.488Z,117.93
2023-03-07T20:48:18.431Z,116.87
2023-03-07T20:50:53.619Z,118.30
2023-03-07T20:53:29.044Z,117.13
2023-03-07T20:56:08.708Z,120.17
2023-03-07T20:58:47.423Z,118.37
2023-03-07T21:01:24.026Z,117.10
2023-03-07T21:03:58.754Z,120.93
2023-03-07T21:06:33.308Z,120.83
2023-03-07T21:09:11.055Z,122.97
2023-03-07T21:11:47.698Z,120.33
2023-03-07T21:14:27.847Z,120.10
2023-03-07T21:17:05.371Z,116.33
2023-03-07T21:19:40.871Z,120.03
2023-03-07T21:22:15.946Z,120.87
2023-03-07T21:24:51.664Z,122.73
2023-03-07T21:27:26.635Z,122.83
2023-03-07T21:30:03.861Z,118.67
2023-03-07T21:32:39.981Z,123.77
2023-03-07T21:35:15.805Z,122.33
2023-03-07T21:37:51.112Z,123.20
2023-03-07T21:40:26.347Z,125.97
2023-03-07T21:43:01.588Z,129.60
2023-03-07T21:45:41.069Z,124.40
2023-03-07T21:48:18.536Z,126.47
2023-03-07T21:50:56.790Z,129.07
2023-03-07T21:53:32.667Z,125.67
2023-03-07T21:56:10.144Z,129.93
2023-03-07T21:58:46.746Z,125.13
2023-03-07T22:01:26.085Z,128.77
2023-03-07T22:04:02.870Z,128.57
2023-03-07T22:06:39.053Z,134.10
2023-03-07T22:09:14.999Z,132.50
2023-03-07T22:11:50.185Z,133.80
2023-03-07T22:14:25.124Z,130.23
2023-03-07T22:17:02.040Z,131.23
2023-03-07T22:19:37.754Z,135.70
2023-03-07T22:22:14.214Z,140.07
2023-03-07T22:24:49.871Z,135.17
2023-03-07T22:27:26.032Z,134.43
2023-03-07T22:30:01.873Z,135.30
2023-03-07T22:32:44.109Z,135.07
2023-03-07T22:35:19.406Z,141.10
2023-03-07T22:37:54.942Z,134.47
2023-03-07T22:40:30.284Z,133.00
2023-03-07T22:43:06.389Z,137.67
2023-03-07T22:45:45.444Z,134.20
2023-03-07T22:48:23.763Z,139.13
2023-03-07T22:50:59.228Z,135.10
2023-03-07T22:53:34.955Z,141.47
2023-03-07T22:56:17.854Z,138.07
2023-03-07T22:58:53.457Z,138.60
2023-03-07T23:01:31.173Z,137.93
2023-03-07T23:04:10.610Z,139.20
2023-03-07T23:06:46.814Z,136.73
2023-03-07T23:09:23.156Z,140.63
2023-03-07T23:11:58.914Z,138.87
2023-03-07T23:14:34.787Z,139.87
2023-03-07T23:17:10.074Z,140.50
2023-03-07T23:19:47.489Z,139.30
2023-03-07T23:22:23.116Z,138.83
2023-03-07T23:24:58.696Z,140.53
2023-03-07T23:27:34.751Z,141.07
2023-03-07T23:30:15.623Z,139.60
2023-03-07T23:32:55.692Z,145.43
2023-03-07T23:35:35.790Z,140.77
2023-03-07T23:38:12.011Z,142.90
2023-03-07T23:40:48.168Z,143.73
2023-03-07T23:43:24.432Z,141.77
2023-03-07T23:45:59.992Z,143.03
2023-03-07T23:48:35.477Z,139.17
2023-03-07T23:51:13.398Z,139.33
2023-03-07T23:53:49.234Z,137.10
2023-03-07T23:56:25.616Z,136.37
2023-03-07T23:59:01.402Z,134.53
